Terminal Aerodrome Forecast
Issued by NWS Jackson, KY

Home | Current Version | Previous Version | Text Only | Print | Product List | Glossary On
Versions: 1 2 3 4 5 6 7 8 9 10 11 12 13 14 15 16 17 18 19 20 21 22 23 24 25
000
FTUS43 KJKL 040043 AAA
TAFJKL
TAF AMD
KJKL 040043Z 0401/0424 VRB05KT 2SM SHRA BR VCTS BKN003 BKN015CB
     FM040400 VRB03KT 5SM BR BKN012
     FM040800 00000KT 1/2SM FG BKN004
     FM041300 VRB03KT P6SM BKN008
     FM041700 VRB05KT P6SM VCTS SCT015CB BKN030=

USA.gov is the U.S. government's official web portal to all federal, state and local government web resources and services.